| time (UTC) | temp F | wind direction | speed MPH | gust MPH | rain 1hr in | rain 24hr in | rain mn in | humidity % | barometer mb |
| 20260502234524 | 61 | 198 | 1.0 | 9.0 | 0.00 | 0.00 | 0.00 | 36 | 1009.1 |
| 20260502233023 | 62 | 232 | 0.0 | 8.0 | 0.00 | 0.00 | 0.00 | 37 | 1009.2 |
| 20260502231622 | 62 | 298 | 7.0 | 14.0 | 0.00 | 0.00 | 0.00 | 36 | 1009.3 |
| 20260502230020 | 63 | 257 | 2.0 | 14.0 | 0.00 | 0.00 | 0.00 | 35 | 1009.5 |
| 20260502224516 | 62 | 290 | 5.0 | 11.0 | 0.00 | 0.00 | 0.00 | 35 | 1009.7 |
| 20260502223015 | 62 | 259 | 4.0 | 11.0 | 0.00 | 0.00 | 0.00 | 35 | 1009.9 |
| 20260502221514 | 63 | 259 | 7.0 | 13.0 | 0.00 | 0.00 | 0.00 | 33 | 1010.0 |
| 20260502220013 | 62 | 257 | 2.0 | 12.0 | 0.00 | 0.00 | 0.00 | 34 | 1010.1 |
| 20260502214513 | 63 | 256 | 7.0 | 13.0 | 0.00 | 0.00 | 0.00 | 32 | 1010.2 |
| 20260502213019 | 63 | 284 | 3.0 | 13.0 | 0.00 | 0.00 | 0.00 | 32 | 1010.6 |
| 20260502211505 | 62 | 326 | 6.0 | 11.0 | 0.00 | 0.00 | 0.00 | 31 | 1010.6 |
| 20260502210002 | 61 | 214 | 8.0 | 17.0 | 0.00 | 0.00 | 0.00 | 31 | 1010.8 |
| 20260502204612 | 61 | 278 | 2.0 | 6.0 | 0.00 | 0.00 | 0.00 | 32 | 1011.1 |
| 20260502203114 | 61 | 297 | 2.0 | 8.0 | 0.00 | 0.00 | 0.00 | 36 | 1011.3 |
| 20260502201554 | 61 | 181 | 3.0 | 11.0 | 0.00 | 0.00 | 0.00 | 33 | 1011.7 |
| 20260502200053 | 60 | 117 | 1.0 | 11.0 | 0.00 | 0.00 | 0.00 | 31 | 1012.0 |
| 20260502194554 | 59 | 264 | 4.0 | 10.0 | 0.00 | 0.00 | 0.00 | 31 | 1012.2 |
| 20260502193049 | 60 | 248 | 2.0 | 9.0 | 0.00 | 0.00 | 0.00 | 30 | 1012.5 |
| 20260502191551 | 59 | 256 | 1.0 | 8.0 | 0.00 | 0.00 | 0.00 | 30 | 1012.9 |
| 20260502190044 | 59 | 286 | 2.0 | 9.0 | 0.00 | 0.00 | 0.00 | 33 | 1013.2 |
| 20260502184541 | 58 | 329 | 4.0 | 11.0 | 0.00 | 0.00 | 0.00 | 32 | 1013.5 |
| 20260502183038 | 58 | 300 | 8.0 | 14.0 | 0.00 | 0.00 | 0.00 | 33 | 1013.8 |
| 20260502181553 | 58 | 262 | 3.0 | 9.0 | 0.00 | 0.00 | 0.00 | 34 | 1014.1 |
| 20260502163018 | 54 | 239 | 2.0 | 7.0 | 0.00 | 0.00 | 0.00 | 36 | 1015.9 |
| 20260502161514 | 53 | 231 | 6.0 | 9.0 | 0.00 | 0.00 | 0.00 | 35 | 1016.2 |
| 20260502151510 | 51 | 271 | 3.0 | 11.0 | 0.00 | 0.00 | 0.00 | 37 | 1017.0 |
| 20260502123028 | 39 | 148 | 1.0 | 6.0 | 0.00 | 0.00 | 0.00 | 61 | 1017.8 |
| 20260502121523 | 37 | 206 | 1.0 | 5.0 | 0.00 | 0.00 | 0.00 | 64 | 1017.8 |
| 20260502114521 | 35 | 56 | 0.0 | 1.0 | 0.00 | 0.00 | 0.00 | 67 | 1018.1 |
| 20260502113021 | 35 | 267 | 0.0 | 7.0 | 0.00 | 0.00 | 0.00 | 67 | 1018.1 |
| 20260502111521 | 34 | 149 | 0.0 | 5.0 | 0.00 | 0.00 | 0.00 | 69 | 1017.9 |
| 20260502110020 | 34 | 140 | 0.0 | 6.0 | 0.00 | 0.00 | 0.00 | 70 | 1017.8 |
| 20260502104518 | 34 | 186 | 1.0 | 6.0 | 0.00 | 0.00 | 0.00 | 69 | 1017.9 |
| 20260502103020 | 34 | 148 | 1.0 | 5.0 | 0.00 | 0.00 | 0.00 | 69 | 1017.9 |
| 20260502101514 | 34 | 102 | 0.0 | 5.0 | 0.00 | 0.00 | 0.00 | 69 | 1017.9 |
| 20260502091507 | 35 | 210 | 0.0 | 5.0 | 0.00 | 0.00 | 0.00 | 67 | 1017.9 |
| 20260502080107 | 36 | 180 | 0.0 | 5.0 | 0.00 | 0.00 | 0.00 | 68 | 1018.4 |
| 20260502070049 | 36 | 153 | 0.0 | 3.0 | 0.00 | 0.00 | 0.00 | 67 | 1018.8 |
| 20260502064557 | 36 | 175 | 0.0 | 5.0 | 0.00 | 0.00 | 0.00 | 67 | 1018.9 |
| 20260502063046 | 36 | 155 | 0.0 | 5.0 | 0.00 | 0.00 | 0.00 | 68 | 1018.9 |
| 20260502061545 | 37 | 127 | 0.0 | 5.0 | 0.00 | 0.00 | 0.00 | 66 | 1018.9 |
| 20260502060046 | 36 | 142 | 0.0 | 6.0 | 0.00 | 0.00 | 0.00 | 66 | 1019.0 |
| 20260502054548 | 37 | 210 | 0.0 | 5.0 | 0.00 | 0.00 | 0.00 | 66 | 1018.9 |
| 20260502053039 | 37 | 155 | 0.0 | 3.0 | 0.00 | 0.00 | 0.00 | 67 | 1019.0 |
| 20260502051539 | 37 | 147 | 0.0 | 3.0 | 0.00 | 0.00 | 0.00 | 66 | 1019.0 |
| 20260502050031 | 37 | 145 | 0.0 | 2.0 | 0.00 | 0.00 | 0.00 | 68 | 1019.0 |
| 20260502044536 | 37 | 156 | 0.0 | 3.0 | 0.00 | 0.00 | 0.00 | 67 | 1019.1 |
| 20260502043031 | 37 | 121 | 0.0 | 4.0 | 0.00 | 0.00 | 0.00 | 66 | 1019.1 |
| 20260502041533 | 38 | 134 | 0.0 | 4.0 | 0.00 | 0.00 | 0.00 | 66 | 1019.1 |
| 20260502040039 | 37 | 145 | 0.0 | 3.0 | 0.00 | 0.00 | 0.00 | 67 | 1019.1 |
| 20260502034529 | 37 | 125 | 0.0 | 3.0 | 0.00 | 0.00 | 0.00 | 67 | 1019.1 |
| 20260502033027 | 37 | 136 | 0.0 | 3.0 | 0.00 | 0.00 | 0.00 | 72 | 1019.2 |
| 20260502031527 | 37 | 210 | 0.0 | 1.0 | 0.00 | 0.00 | 0.00 | 69 | 1019.2 |
| 20260502030028 | 39 | 127 | 0.0 | 0.0 | 0.00 | 0.00 | 0.00 | 66 | 1019.2 |
| 20260502024526 | 39 | 107 | 0.0 | 3.0 | 0.00 | 0.00 | 0.00 | 62 | 1019.2 |
| 20260502023025 | 39 | 106 | 0.0 | 2.0 | 0.00 | 0.00 | 0.00 | 61 | 1019.0 |
| 20260502021525 | 40 | 145 | 0.0 | 1.0 | 0.00 | 0.00 | 0.00 | 61 | 1019.0 |
| 20260502020024 | 41 | 124 | 0.0 | 1.0 | 0.00 | 0.00 | 0.00 | 61 | 1018.9 |
| 20260502014538 | 42 | 86 | 0.0 | 0.0 | 0.00 | 0.00 | 0.00 | 54 | 1018.8 |
| 20260502013023 | 44 | 84 | 0.0 | 0.0 | 0.00 | 0.00 | 0.00 | 55 | 1018.6 |
| 20260502011523 | 46 | 86 | 0.0 | 0.0 | 0.00 | 0.00 | 0.00 | 44 | 1018.5 |
| 20260502010022 | 48 | 84 | 0.0 | 0.0 | 0.00 | 0.00 | 0.00 | 43 | 1018.6 |
| 20260502004523 | 49 | 84 | 0.0 | 0.0 | 0.00 | 0.00 | 0.00 | 40 | 1018.5 |
| 20260502003021 | 50 | 40 | 0.0 | 3.0 | 0.00 | 0.00 | 0.00 | 38 | 1018.5 |
| 20260502001530 | 50 | 21 | 0.0 | 3.0 | 0.00 | 0.00 | 0.00 | 37 | 1018.5 |
| 20260502000020 | 51 | 23 | 1.0 | 5.0 | 0.00 | 0.00 | 0.00 | 37 | 1018.4 |